Time;durP1;ratioP1;P1;durP2;ratioP2;P2;SDS_P1;SDS_P2;PMS_P1;PMS_P2;Temp;Humidity;BMP_temperature;BMP_pressure;BME280_temperature;BME280_humidity;BME280_pressure;Samples;Min_cycle;Max_cycle;Signal;HPM_P1;HPM_P2
2023/04/01 00:00:02;;;;;;;1.37;0.80;;;11.10;99.90;;;;;;5095379;28;20279;-60
2023/04/01 00:02:29;;;;;;;1.37;0.30;;;11.00;99.90;;;;;;5095976;28;20212;-60
2023/04/01 00:04:56;;;;;;;0.77;0.43;;;10.90;99.90;;;;;;5095374;28;20231;-60
2023/04/01 00:07:22;;;;;;;1.83;0.50;;;10.90;99.90;;;;;;5095690;28;20757;-60
2023/04/01 00:09:51;;;;;;;2.13;0.50;;;10.80;99.90;;;;;;5095121;28;20234;-60
2023/04/01 00:12:17;;;;;;;1.47;0.60;;;10.80;99.90;;;;;;5095585;28;20231;-60
2023/04/01 00:14:44;;;;;;;1.60;0.50;;;10.80;99.90;;;;;;5096682;28;20621;-60
2023/04/01 00:17:11;;;;;;;0.90;0.33;;;10.80;99.90;;;;;;5097158;28;20203;-60
2023/04/01 00:19:38;;;;;;;3.27;0.80;;;10.90;99.90;;;;;;5097487;28;20683;-60
2023/04/01 00:22:06;;;;;;;1.80;0.57;;;10.80;99.90;;;;;;5097139;28;20212;-60
2023/04/01 00:24:32;;;;;;;1.60;0.50;;;10.90;99.90;;;;;;5096929;28;20210;-59
2023/04/01 00:27:00;;;;;;;1.33;0.50;;;10.80;99.90;;;;;;5096578;28;20702;-60
2023/04/01 00:29:29;;;;;;;2.40;0.70;;;10.80;99.90;;;;;;5096385;28;20228;-59
2023/04/01 00:31:56;;;;;;;2.23;0.53;;;10.90;99.90;;;;;;5095797;28;20216;-60
2023/04/01 00:34:24;;;;;;;3.13;0.77;;;10.90;99.90;;;;;;5095179;28;20655;-60
2023/04/01 00:36:52;;;;;;;2.97;0.60;;;10.90;99.90;;;;;;5094783;28;20228;-59
2023/04/01 00:39:18;;;;;;;3.10;0.90;;;10.90;99.90;;;;;;5095000;28;20204;-59
2023/04/01 00:41:45;;;;;;;2.57;0.93;;;10.90;99.90;;;;;;5095074;28;20333;-59
2023/04/01 00:44:19;;;;;;;2.40;0.70;;;11.00;99.90;;;;;;5094783;28;20204;-59
2023/04/01 00:46:47;;;;;;;1.47;0.60;;;11.00;99.90;;;;;;5095216;28;20235;-60
2023/04/01 00:49:14;;;;;;;1.87;0.80;;;11.00;99.90;;;;;;5096803;28;20196;-60
2023/04/01 00:51:43;;;;;;;5.27;0.80;;;10.90;99.90;;;;;;5095339;28;20200;-60
2023/04/01 00:54:10;;;;;;;3.03;0.90;;;10.90;99.90;;;;;;5096448;28;20211;-60
2023/04/01 00:56:40;;;;;;;3.10;1.10;;;10.90;99.90;;;;;;5095114;28;20315;-60
2023/04/01 00:59:10;;;;;;;1.87;0.60;;;10.90;99.90;;;;;;5095418;28;20209;-60
2023/04/01 01:01:38;;;;;;;1.47;0.80;;;10.90;99.90;;;;;;5095143;28;20298;-60
2023/04/01 01:04:05;;;;;;;1.37;0.77;;;10.90;99.90;;;;;;5095166;28;20212;-60
2023/04/01 01:06:44;;;;;;;1.40;0.70;;;10.80;99.90;;;;;;5093929;28;20710;-60
2023/04/01 01:09:29;;;;;;;2.57;0.83;;;10.90;99.90;;;;;;5094435;28;20254;-60
2023/04/01 01:12:04;;;;;;;2.93;1.00;;;11.10;99.90;;;;;;5094993;28;20242;-60
2023/04/01 01:14:42;;;;;;;3.13;0.67;;;11.10;99.90;;;;;;5094592;28;20206;-59
2023/04/01 01:17:20;;;;;;;3.70;2.07;;;11.20;99.90;;;;;;5094145;28;20227;-59
2023/04/01 01:20:03;;;;;;;2.67;0.93;;;11.20;99.90;;;;;;5093850;28;20204;-59
2023/04/01 01:22:48;;;;;;;1.80;0.70;;;11.20;99.90;;;;;;5093922;28;20204;-59
2023/04/01 01:25:31;;;;;;;2.17;0.83;;;11.30;99.90;;;;;;5094284;28;20228;-60
2023/04/01 01:28:14;;;;;;;4.90;0.80;;;11.30;99.90;;;;;;5094615;28;20649;-59
2023/04/01 01:30:51;;;;;;;1.50;0.60;;;11.20;99.90;;;;;;5094251;28;20254;-60
2023/04/01 01:33:50;;;;;;;3.77;0.77;;;11.30;99.90;;;;;;5093378;28;20212;-60
2023/04/01 01:36:21;;;;;;;2.17;0.67;;;11.30;99.90;;;;;;5093640;28;20231;-60
2023/04/01 01:38:49;;;;;;;3.23;0.70;;;11.40;99.90;;;;;;5093460;28;20710;-60
2023/04/01 01:41:17;;;;;;;2.63;0.80;;;11.40;99.90;;;;;;5093706;28;20200;-59
2023/04/01 01:43:48;;;;;;;1.50;0.60;;;11.50;99.90;;;;;;5093742;28;20208;-59
2023/04/01 01:46:19;;;;;;;2.67;0.77;;;11.50;99.90;;;;;;5093303;28;20224;-59
2023/04/01 01:48:48;;;;;;;3.13;0.60;;;11.60;99.90;;;;;;5093561;28;20200;-59
2023/04/01 01:51:15;;;;;;;1.30;0.60;;;11.60;99.90;;;;;;5093403;28;20223;-60
2023/04/01 01:53:43;;;;;;;4.03;0.80;;;11.60;99.90;;;;;;5094088;28;20208;-60
2023/04/01 01:56:12;;;;;;;2.33;0.67;;;11.60;99.90;;;;;;5093395;28;20323;-60
2023/04/01 01:58:44;;;;;;;3.27;0.90;;;11.60;99.90;;;;;;5093484;28;20269;-60
2023/04/01 02:01:15;;;;;;;2.50;0.80;;;11.60;99.90;;;;;;5093526;28;20210;-60
2023/04/01 02:03:44;;;;;;;0.73;0.37;;;11.60;99.90;;;;;;5093410;28;20208;-59
2023/04/01 02:06:14;;;;;;;1.53;0.40;;;11.50;99.90;;;;;;5093454;28;20250;-59
2023/04/01 02:08:46;;;;;;;2.63;0.57;;;11.50;99.90;;;;;;5093499;28;20216;-59
2023/04/01 02:11:18;;;;;;;2.67;0.73;;;11.50;99.90;;;;;;5093662;28;20228;-60
2023/04/01 02:13:52;;;;;;;4.47;0.60;;;11.50;99.90;;;;;;5093736;28;20204;-59
2023/04/01 02:16:23;;;;;;;2.70;0.50;;;11.50;99.90;;;;;;5094128;28;20247;-60
2023/04/01 02:18:53;;;;;;;1.07;0.40;;;11.50;99.90;;;;;;5093678;28;20304;-59
2023/04/01 02:21:23;;;;;;;1.67;0.53;;;11.40;99.90;;;;;;5093163;28;20694;-60
2023/04/01 02:23:53;;;;;;;2.00;0.70;;;11.40;99.90;;;;;;5093542;28;20211;-59
2023/04/01 02:26:21;;;;;;;1.77;0.50;;;11.40;99.90;;;;;;5092253;28;20263;-59
2023/04/01 02:28:51;;;;;;;2.43;0.47;;;11.40;99.90;;;;;;5092610;28;20203;-60
2023/04/01 02:31:18;;;;;;;3.43;1.30;;;11.30;99.90;;;;;;5092408;28;20327;-59
2023/04/01 02:33:45;;;;;;;1.73;0.50;;;11.30;99.90;;;;;;5093169;28;20672;-59
2023/04/01 02:36:13;;;;;;;3.67;0.70;;;11.40;99.90;;;;;;5096445;28;20644;-60
2023/04/01 02:38:41;;;;;;;1.67;0.43;;;11.40;99.90;;;;;;5096458;28;20210;-59
2023/04/01 02:41:09;;;;;;;2.37;0.50;;;11.30;99.90;;;;;;5096501;28;20201;-61
2023/04/01 02:43:36;;;;;;;0.80;0.47;;;11.30;99.90;;;;;;5096560;28;20208;-59
2023/04/01 02:46:03;;;;;;;5.77;0.70;;;11.20;99.90;;;;;;5096158;28;20224;-60
2023/04/01 02:48:30;;;;;;;1.67;0.57;;;11.20;99.90;;;;;;5096310;28;20200;-60
2023/04/01 02:50:58;;;;;;;1.47;0.47;;;11.10;99.90;;;;;;5096722;28;20224;-60
2023/04/01 02:53:24;;;;;;;1.83;0.80;;;11.10;99.90;;;;;;5096470;28;20312;-60
2023/04/01 02:55:52;;;;;;;1.47;0.50;;;11.20;99.90;;;;;;5096773;28;20228;-59
2023/04/01 02:58:20;;;;;;;1.77;0.60;;;11.20;99.90;;;;;;5095966;28;20271;-59
2023/04/01 03:00:47;;;;;;;0.93;0.30;;;11.20;99.90;;;;;;5096149;28;20204;-60
2023/04/01 03:03:14;;;;;;;1.13;0.37;;;11.30;99.90;;;;;;5096429;28;20201;-59
2023/04/01 03:05:41;;;;;;;0.87;0.37;;;11.20;99.90;;;;;;5096224;28;20252;-60
2023/04/01 03:08:08;;;;;;;0.90;0.40;;;11.20;99.90;;;;;;5096350;28;20283;-60
2023/04/01 03:10:34;;;;;;;0.70;0.30;;;11.20;99.90;;;;;;5095924;28;20260;-60
2023/04/01 03:13:01;;;;;;;2.63;0.47;;;11.20;99.90;;;;;;5096927;28;20653;-59
2023/04/01 03:15:29;;;;;;;1.57;0.57;;;11.30;99.90;;;;;;5096680;28;20228;-60
2023/04/01 03:17:56;;;;;;;0.87;0.20;;;11.30;99.90;;;;;;5097186;28;20208;-60
2023/04/01 03:20:23;;;;;;;1.20;0.30;;;11.20;99.90;;;;;;5096809;28;20201;-60
2023/04/01 03:22:49;;;;;;;0.20;0.10;;;11.20;99.90;;;;;;5096527;28;20208;-59
2023/04/01 03:25:16;;;;;;;0.50;0.30;;;11.10;99.90;;;;;;5096096;28;20227;-59
2023/04/01 03:27:43;;;;;;;1.07;0.53;;;11.10;99.90;;;;;;5095477;28;20216;-60
2023/04/01 03:30:10;;;;;;;0.90;0.37;;;11.20;99.90;;;;;;5095635;28;20290;-59
2023/04/01 03:32:38;;;;;;;1.57;0.60;;;11.20;99.90;;;;;;5095709;28;20230;-60
2023/04/01 03:35:06;;;;;;;1.00;0.30;;;11.20;99.90;;;;;;5096157;28;20257;-60
2023/04/01 03:37:33;;;;;;;0.57;0.23;;;11.20;99.90;;;;;;5095947;28;20214;-59
2023/04/01 03:39:59;;;;;;;0.70;0.27;;;11.20;99.90;;;;;;5095610;28;20200;-59
2023/04/01 03:42:26;;;;;;;2.23;0.40;;;11.20;99.90;;;;;;5096135;28;20208;-60
2023/04/01 03:44:53;;;;;;;1.17;0.27;;;11.10;99.90;;;;;;5095080;28;20314;-59
2023/04/01 03:47:20;;;;;;;0.87;0.30;;;11.10;99.90;;;;;;5095738;28;20814;-59
2023/04/01 03:49:48;;;;;;;1.07;0.70;;;11.00;99.90;;;;;;5095177;28;20200;-59
2023/04/01 03:52:15;;;;;;;0.70;0.20;;;10.90;99.90;;;;;;5095477;28;20315;-60
2023/04/01 03:54:41;;;;;;;0.87;0.40;;;10.80;99.90;;;;;;5095875;28;20215;-59
2023/04/01 03:57:08;;;;;;;1.40;0.30;;;10.70;99.90;;;;;;5095895;28;20208;-59
2023/04/01 03:59:35;;;;;;;1.50;0.40;;;10.60;99.90;;;;;;5095426;28;20211;-60
2023/04/01 04:02:02;;;;;;;0.80;0.30;;;10.50;99.90;;;;;;5095271;28;20230;-59
2023/04/01 04:04:29;;;;;;;1.17;0.40;;;10.60;99.90;;;;;;5095708;28;20263;-60
2023/04/01 04:06:58;;;;;;;0.40;0.33;;;10.60;99.90;;;;;;5096162;28;20235;-60
2023/04/01 04:09:24;;;;;;;0.43;0.20;;;10.50;99.90;;;;;;5096831;28;20200;-60
2023/04/01 04:11:51;;;;;;;1.00;0.37;;;10.60;99.90;;;;;;5096157;28;20228;-60
2023/04/01 04:14:18;;;;;;;3.03;0.60;;;10.60;99.90;;;;;;5095812;28;20204;-60
2023/04/01 04:16:45;;;;;;;1.40;0.33;;;10.50;99.90;;;;;;5094509;28;20231;-60
2023/04/01 04:19:11;;;;;;;0.93;0.33;;;10.30;99.90;;;;;;5095193;28;20576;-61
2023/04/01 04:21:38;;;;;;;2.63;0.40;;;10.40;99.90;;;;;;5095062;28;20315;-61
2023/04/01 04:24:07;;;;;;;1.57;0.40;;;10.30;99.90;;;;;;5094722;28;20209;-60
2023/04/01 04:26:34;;;;;;;2.63;0.40;;;10.30;99.90;;;;;;5094297;28;20242;-60
2023/04/01 04:29:01;;;;;;;0.77;0.30;;;10.40;99.90;;;;;;5094621;28;20216;-60
2023/04/01 04:31:28;;;;;;;0.90;0.50;;;10.30;99.90;;;;;;5094333;28;20691;-60
2023/04/01 04:33:56;;;;;;;0.70;0.40;;;10.30;99.90;;;;;;5094628;28;20199;-60
2023/04/01 04:36:23;;;;;;;0.87;0.50;;;10.40;99.90;;;;;;5094922;28;20224;-60
2023/04/01 04:38:50;;;;;;;0.60;0.30;;;10.50;99.90;;;;;;5094660;28;20219;-60
2023/04/01 04:41:19;;;;;;;1.90;0.40;;;10.60;99.90;;;;;;5094524;28;20204;-60
2023/04/01 04:43:51;;;;;;;1.27;0.37;;;10.70;99.90;;;;;;5094252;28;20689;-59
2023/04/01 04:46:18;;;;;;;0.20;0.20;;;10.70;99.90;;;;;;5094396;28;20793;-59
2023/04/01 04:48:45;;;;;;;0.50;0.13;;;10.60;99.90;;;;;;5094464;28;20208;-59
2023/04/01 04:51:15;;;;;;;1.37;0.50;;;10.70;99.90;;;;;;5094652;28;20227;-59
2023/04/01 04:53:42;;;;;;;3.20;0.87;;;10.70;99.90;;;;;;5094934;28;20273;-64
2023/04/01 04:56:09;;;;;;;0.57;0.37;;;10.70;99.90;;;;;;5094368;28;20224;-60
2023/04/01 04:58:37;;;;;;;0.30;0.10;;;10.70;99.90;;;;;;5093836;28;20656;-59
2023/04/01 05:01:08;;;;;;;1.20;0.53;;;10.70;99.90;;;;;;5094460;28;20203;-59
2023/04/01 05:03:35;;;;;;;1.57;0.90;;;10.60;99.90;;;;;;5094157;28;20204;-60
2023/04/01 05:06:02;;;;;;;1.17;0.57;;;10.50;99.90;;;;;;5094639;28;20220;-60
2023/04/01 05:08:29;;;;;;;1.43;0.60;;;10.30;99.90;;;;;;5094612;28;20215;-60
2023/04/01 05:10:55;;;;;;;3.00;0.67;;;10.30;99.90;;;;;;5094053;28;20770;-60
2023/04/01 05:13:23;;;;;;;2.10;0.60;;;10.40;99.90;;;;;;5093934;28;20204;-60
2023/04/01 05:15:52;;;;;;;0.80;0.50;;;10.50;99.90;;;;;;5093968;28;20227;-60
2023/04/01 05:18:18;;;;;;;0.97;0.50;;;10.40;99.90;;;;;;5094626;28;20312;-59
2023/04/01 05:20:50;;;;;;;0.40;0.20;;;10.40;99.90;;;;;;5094507;28;20204;-59
2023/04/01 05:23:17;;;;;;;0.57;0.40;;;10.40;99.90;;;;;;5093779;28;20694;-59
2023/04/01 05:25:44;;;;;;;2.90;0.60;;;10.50;99.90;;;;;;5093738;28;20227;-60
2023/04/01 05:28:11;;;;;;;1.60;0.80;;;10.60;99.90;;;;;;5093568;28;20223;-60
2023/04/01 05:30:40;;;;;;;2.17;0.80;;;10.70;99.90;;;;;;5093750;28;20204;-60
2023/04/01 05:33:09;;;;;;;2.93;0.70;;;10.80;99.90;;;;;;5093806;28;20208;-60
2023/04/01 05:35:36;;;;;;;2.27;0.70;;;10.80;99.90;;;;;;5094844;28;20700;-59
2023/04/01 05:38:03;;;;;;;2.30;0.80;;;10.90;99.90;;;;;;5094073;28;20208;-59
2023/04/01 05:40:30;;;;;;;2.27;0.60;;;10.90;99.90;;;;;;5093889;28;20203;-59
2023/04/01 05:42:58;;;;;;;1.07;0.40;;;11.00;99.90;;;;;;5093908;28;20211;-60
2023/04/01 05:45:25;;;;;;;2.20;0.90;;;11.20;99.90;;;;;;5093855;28;20246;-60
2023/04/01 05:47:52;;;;;;;2.07;0.67;;;11.30;99.90;;;;;;5094062;28;20667;-61
2023/04/01 05:50:20;;;;;;;1.83;0.60;;;11.30;99.90;;;;;;5094115;28;20258;-59
2023/04/01 05:52:46;;;;;;;2.37;0.57;;;11.40;99.90;;;;;;5094308;28;20251;-59
2023/04/01 05:55:13;;;;;;;2.13;0.90;;;11.50;99.90;;;;;;5093970;28;20232;-59
2023/04/01 05:57:40;;;;;;;1.57;0.60;;;11.50;99.90;;;;;;5094388;28;20222;-60
2023/04/01 06:00:08;;;;;;;1.73;0.70;;;11.50;99.90;;;;;;5094110;28;20215;-60
2023/04/01 06:02:35;;;;;;;2.03;0.60;;;11.60;99.90;;;;;;5094820;28;20196;-60
2023/04/01 06:05:13;;;;;;;1.60;0.60;;;11.70;99.90;;;;;;5093688;28;20278;-59
2023/04/01 06:07:41;;;;;;;1.47;0.40;;;12.00;99.90;;;;;;5094454;28;20200;-59
2023/04/01 06:10:15;;;;;;;1.77;0.60;;;12.10;99.90;;;;;;5097378;28;20207;-59
2023/04/01 06:12:51;;;;;;;2.23;0.57;;;12.20;99.90;;;;;;5097880;28;20224;-59
2023/04/01 06:15:31;;;;;;;3.27;0.67;;;12.30;99.90;;;;;;5097377;28;20236;-59
2023/04/01 06:18:25;;;;;;;2.13;0.60;;;12.30;99.90;;;;;;5097361;28;20208;-59
2023/04/01 06:21:00;;;;;;;1.87;1.27;;;12.40;99.90;;;;;;5097977;28;20208;-59
2023/04/01 06:23:45;;;;;;;2.00;1.00;;;12.50;99.90;;;;;;5097012;28;20264;-60
2023/04/01 06:26:31;;;;;;;2.57;0.83;;;12.60;99.90;;;;;;5096596;28;20228;-60
2023/04/01 06:29:17;;;;;;;0.97;0.50;;;12.70;99.90;;;;;;5096654;28;20200;-60
2023/04/01 06:32:08;;;;;;;9.07;3.53;;;12.90;99.90;;;;;;5096691;28;20228;-59
2023/04/01 06:35:04;;;;;;;1.67;0.77;;;13.10;99.90;;;;;;5096645;28;20200;-60
2023/04/01 06:37:57;;;;;;;1.67;0.77;;;13.20;99.90;;;;;;5089707;28;20209;-60
2023/04/01 06:40:55;;;;;;;2.03;0.90;;;13.40;99.90;;;;;;5096412;28;20211;-60
2023/04/01 06:43:30;;;;;;;3.73;1.20;;;13.40;99.90;;;;;;5096518;28;20223;-60
2023/04/01 06:46:07;;;;;;;3.43;1.00;;;13.40;99.90;;;;;;5096186;28;20703;-61
2023/04/01 06:48:50;;;;;;;0.73;0.30;;;13.40;99.90;;;;;;5096654;28;20206;-61
2023/04/01 06:51:26;;;;;;;4.67;2.33;;;13.20;99.90;;;;;;5096210;28;20244;-60
2023/04/01 06:54:00;;;;;;;3.03;0.77;;;13.30;99.90;;;;;;5096469;28;20680;-60
2023/04/01 06:56:30;;;;;;;1.10;0.50;;;13.20;99.90;;;;;;5096287;28;20228;-60
2023/04/01 06:58:59;;;;;;;1.43;0.60;;;13.20;99.90;;;;;;5096108;28;20208;-60
2023/04/01 07:01:33;;;;;;;2.40;0.90;;;13.10;99.90;;;;;;5096278;28;20593;-60
2023/04/01 07:04:05;;;;;;;2.73;0.60;;;13.10;99.90;;;;;;5096614;28;20204;-60
2023/04/01 07:06:36;;;;;;;3.87;1.00;;;13.00;99.90;;;;;;5096218;28;20611;-60
2023/04/01 07:09:09;;;;;;;1.60;0.70;;;13.00;99.90;;;;;;5096462;28;20235;-60
2023/04/01 07:11:39;;;;;;;0.73;0.40;;;12.90;99.90;;;;;;5096136;28;20714;-60
2023/04/01 07:14:14;;;;;;;3.50;0.50;;;13.00;99.90;;;;;;5095775;28;20200;-60
2023/04/01 07:16:47;;;;;;;2.73;0.37;;;13.00;99.90;;;;;;5095747;28;20228;-59
2023/04/01 07:19:19;;;;;;;1.57;0.53;;;12.90;99.90;;;;;;5095821;28;20211;-59
2023/04/01 07:21:49;;;;;;;1.70;0.60;;;13.00;99.90;;;;;;5096201;28;20200;-59
2023/04/01 07:24:21;;;;;;;1.73;0.37;;;13.00;99.90;;;;;;5095565;28;20208;-59
2023/04/01 07:26:54;;;;;;;1.17;0.43;;;13.00;99.90;;;;;;5095484;28;20236;-60
2023/04/01 07:29:21;;;;;;;1.57;0.30;;;13.00;99.90;;;;;;5096000;28;20204;-60
2023/04/01 07:32:00;;;;;;;2.20;0.50;;;13.00;99.90;;;;;;5095699;28;20228;-60
2023/04/01 07:34:30;;;;;;;4.00;1.13;;;13.10;99.90;;;;;;5095505;28;20211;-61
2023/04/01 07:37:03;;;;;;;5.00;0.50;;;13.20;99.90;;;;;;5094957;28;20232;-61
2023/04/01 07:39:41;;;;;;;1.90;0.50;;;13.20;99.90;;;;;;5095378;28;20235;-60
2023/04/01 07:42:16;;;;;;;0.77;0.30;;;13.10;99.90;;;;;;5095675;28;20690;-60
2023/04/01 07:44:52;;;;;;;3.27;0.67;;;13.00;99.90;;;;;;5095647;28;20203;-59
2023/04/01 07:47:40;;;;;;;2.30;0.70;;;12.90;99.90;;;;;;5094724;28;20299;-60
2023/04/01 07:50:20;;;;;;;2.00;1.00;;;12.90;99.90;;;;;;5095043;28;20219;-60
2023/04/01 07:52:57;;;;;;;2.27;0.40;;;13.00;99.90;;;;;;5095018;28;20228;-59
2023/04/01 07:55:30;;;;;;;1.20;0.30;;;13.00;99.90;;;;;;5094494;28;20234;-60
2023/04/01 07:58:08;;;;;;;0.97;0.43;;;13.00;99.90;;;;;;5095560;28;20212;-65
2023/04/01 08:00:43;;;;;;;0.70;0.20;;;13.10;99.90;;;;;;5095087;28;20204;-60
2023/04/01 08:03:27;;;;;;;2.07;0.40;;;13.30;99.90;;;;;;5094770;28;20253;-60
2023/04/01 08:05:58;;;;;;;1.57;0.50;;;13.30;99.90;;;;;;5094166;28;20228;-60
2023/04/01 08:08:37;;;;;;;1.47;0.50;;;13.40;99.90;;;;;;5094147;28;20231;-60
2023/04/01 08:11:14;;;;;;;3.23;0.73;;;13.40;99.90;;;;;;5094103;28;20216;-60
2023/04/01 08:13:50;;;;;;;0.70;0.47;;;13.50;99.90;;;;;;5094157;28;20254;-60
2023/04/01 08:16:24;;;;;;;1.77;0.73;;;13.60;99.90;;;;;;5093766;28;20227;-60
2023/04/01 08:18:59;;;;;;;2.20;0.30;;;13.70;99.90;;;;;;5093848;28;20241;-60
2023/04/01 08:21:29;;;;;;;2.20;0.60;;;13.90;99.90;;;;;;5093946;28;20208;-60
2023/04/01 08:23:59;;;;;;;0.77;0.40;;;14.00;99.90;;;;;;5094193;28;20201;-61
2023/04/01 08:26:35;;;;;;;0.47;0.30;;;14.00;99.90;;;;;;5093496;28;20236;-60
2023/04/01 08:29:12;;;;;;;3.23;0.57;;;14.00;99.90;;;;;;5093526;28;20671;-60
2023/04/01 08:31:45;;;;;;;0.60;0.40;;;13.90;99.90;;;;;;5093257;28;20208;-61
2023/04/01 08:34:19;;;;;;;3.23;0.60;;;13.90;99.90;;;;;;5093883;28;20242;-60
2023/04/01 08:36:53;;;;;;;3.10;0.40;;;14.00;99.90;;;;;;5093445;28;20293;-60
2023/04/01 08:39:29;;;;;;;3.70;0.53;;;13.90;99.90;;;;;;5093407;28;20569;-60
2023/04/01 08:42:32;;;;;;;1.33;0.47;;;13.80;99.90;;;;;;5093912;28;20211;-60
2023/04/01 08:45:29;;;;;;;0.77;0.40;;;13.70;99.90;;;;;;5093438;28;20641;-60
2023/04/01 08:48:25;;;;;;;2.63;0.47;;;13.70;99.90;;;;;;5093222;28;20219;-60
2023/04/01 08:51:32;;;;;;;2.33;0.50;;;13.70;99.90;;;;;;5093641;28;20204;-60
2023/04/01 08:54:17;;;;;;;1.70;0.70;;;13.70;99.90;;;;;;5067164;28;20686;-63
2023/04/01 08:56:54;;;;;;;1.97;0.60;;;13.60;99.90;;;;;;5090539;28;20724;-61
2023/04/01 08:59:33;;;;;;;1.47;0.50;;;13.50;99.90;;;;;;5092030;28;20242;-60
2023/04/01 09:02:26;;;;;;;3.50;0.57;;;13.50;99.90;;;;;;5092774;28;20200;-59
2023/04/01 09:05:35;;;;;;;2.33;0.80;;;13.40;99.90;;;;;;5092668;28;20224;-60
2023/04/01 09:08:12;;;;;;;1.07;0.30;;;13.30;99.90;;;;;;5055210;28;20660;-59
2023/04/01 09:11:08;;;;;;;3.90;0.77;;;13.20;99.90;;;;;;5092952;28;20212;-60
2023/04/01 09:14:08;;;;;;;0.40;0.30;;;13.20;99.90;;;;;;5092414;28;20230;-59
2023/04/01 09:17:05;;;;;;;1.30;0.57;;;13.30;99.90;;;;;;5092527;28;20229;-59
2023/04/01 09:19:43;;;;;;;1.40;0.50;;;13.30;99.90;;;;;;5092564;28;20232;-59
2023/04/01 09:22:21;;;;;;;1.20;0.37;;;13.20;99.90;;;;;;5092719;28;20203;-59
2023/04/01 09:25:16;;;;;;;1.70;0.50;;;13.20;99.90;;;;;;5092419;28;20204;-60
2023/04/01 09:27:51;;;;;;;0.63;0.20;;;13.20;99.90;;;;;;5092451;28;20683;-60
2023/04/01 09:30:42;;;;;;;1.17;0.50;;;13.30;99.90;;;;;;5092033;28;20559;-59
2023/04/01 09:33:35;;;;;;;2.83;0.43;;;13.40;99.90;;;;;;5091602;28;20687;-59
2023/04/01 09:36:13;;;;;;;1.07;0.40;;;13.50;99.90;;;;;;5092220;28;20220;-60
2023/04/01 09:38:56;;;;;;;1.30;0.50;;;13.70;99.90;;;;;;5092926;28;20287;-60
2023/04/01 09:41:31;;;;;;;1.37;0.30;;;13.90;99.90;;;;;;5091798;28;20723;-60
2023/04/01 09:44:12;;;;;;;0.43;0.30;;;14.00;99.90;;;;;;5094777;28;20195;-61
2023/04/01 09:47:01;;;;;;;0.60;0.20;;;14.20;99.90;;;;;;5096119;28;20234;-60
2023/04/01 09:49:52;;;;;;;1.13;0.40;;;14.20;99.90;;;;;;5096204;28;20295;-61
2023/04/01 09:52:31;;;;;;;1.10;0.50;;;14.20;99.90;;;;;;5095868;28;20599;-60
2023/04/01 09:55:16;;;;;;;1.47;0.43;;;14.20;99.90;;;;;;5096042;28;20231;-61
2023/04/01 09:58:30;;;;;;;1.00;0.47;;;14.20;99.90;;;;;;5095955;28;20211;-60
2023/04/01 10:01:22;;;;;;;0.87;0.40;;;14.20;99.90;;;;;;5033124;28;20629;-60
2023/04/01 10:04:21;;;;;;;0.70;0.30;;;14.10;99.90;;;;;;5032961;28;20241;-61
2023/04/01 10:07:34;;;;;;;1.13;0.30;;;14.20;99.90;;;;;;5060526;28;20224;-60
2023/04/01 10:10:33;;;;;;;1.30;0.67;;;14.40;99.90;;;;;;5096276;28;20691;-60
2023/04/01 10:13:31;;;;;;;0.73;0.37;;;14.50;99.90;;;;;;5096696;28;20216;-63
2023/04/01 10:16:12;;;;;;;1.73;0.57;;;14.60;99.90;;;;;;5096615;28;20274;-59
2023/04/01 10:19:07;;;;;;;1.37;0.37;;;14.70;99.90;;;;;;5096903;28;20296;-60
2023/04/01 10:22:26;;;;;;;1.23;0.50;;;14.80;99.90;;;;;;5096274;28;20204;-59
2023/04/01 10:25:15;;;;;;;1.27;0.50;;;14.80;99.90;;;;;;5033961;28;20214;-60
2023/04/01 10:28:15;;;;;;;1.33;0.20;;;14.60;99.90;;;;;;5033431;28;20284;-59
2023/04/01 10:31:17;;;;;;;0.37;0.30;;;14.60;99.90;;;;;;5084730;28;20491;-59
2023/04/01 10:34:21;;;;;;;0.53;0.30;;;14.50;99.90;;;;;;5095843;28;20234;-58
2023/04/01 10:36:53;;;;;;;0.77;0.40;;;14.60;99.90;;;;;;5095936;28;20231;-59
2023/04/01 10:39:35;;;;;;;0.33;0.27;;;14.50;99.90;;;;;;5095879;28;20202;-59
2023/04/01 10:42:32;;;;;;;1.37;0.50;;;14.40;99.90;;;;;;5096115;28;20273;-58
2023/04/01 10:45:35;;;;;;;2.77;1.43;;;14.20;99.90;;;;;;5095961;28;20225;-59
2023/04/01 10:48:24;;;;;;;1.43;0.90;;;14.10;99.90;;;;;;5095851;28;20211;-59
2023/04/01 10:51:13;;;;;;;1.13;0.30;;;14.10;99.90;;;;;;5095216;28;20204;-59
2023/04/01 10:54:18;;;;;;;0.83;0.50;;;14.00;99.90;;;;;;5096002;28;20685;-59
2023/04/01 10:56:55;;;;;;;0.20;0.20;;;14.00;99.90;;;;;;5032973;28;20728;-60
2023/04/01 10:59:57;;;;;;;0.40;0.30;;;14.00;99.90;;;;;;5088631;28;20215;-59
2023/04/01 11:03:01;;;;;;;0.53;0.40;;;14.00;99.90;;;;;;5095088;28;20211;-59
2023/04/01 11:06:09;;;;;;;3.63;0.40;;;13.90;99.90;;;;;;5072273;28;20232;-59
2023/04/01 11:09:24;;;;;;;0.30;0.10;;;13.70;99.90;;;;;;5069334;28;20676;-60
2023/04/01 11:12:24;;;;;;;0.77;0.33;;;13.60;99.90;;;;;;5096210;28;20210;-59
2023/04/01 11:15:22;;;;;;;0.40;0.20;;;13.50;99.90;;;;;;5096316;28;20201;-60
2023/04/01 11:18:34;;;;;;;0.40;0.20;;;13.60;99.90;;;;;;5094868;28;20211;-60
2023/04/01 11:21:29;;;;;;;0.87;0.20;;;13.50;99.90;;;;;;5095284;28;20201;-58
2023/04/01 11:24:18;;;;;;;0.87;0.40;;;13.40;99.90;;;;;;5095589;28;20211;-62
2023/04/01 11:26:56;;;;;;;0.57;0.57;;;13.60;99.90;;;;;;5094967;28;20632;-58
2023/04/01 11:29:49;;;;;;;2.57;0.47;;;13.70;99.90;;;;;;5095352;28;20215;-59
2023/04/01 11:32:30;;;;;;;1.70;0.27;;;13.80;99.90;;;;;;5094993;28;20216;-59
2023/04/01 11:35:13;;;;;;;0.50;0.20;;;13.90;99.90;;;;;;5095663;28;20306;-59
2023/04/01 11:37:44;;;;;;;4.33;2.03;;;14.10;99.90;;;;;;5094507;28;20586;-59
2023/04/01 11:40:23;;;;;;;0.23;0.20;;;14.40;99.90;;;;;;5094886;28;20200;-59
2023/04/01 11:42:56;;;;;;;0.30;0.20;;;14.60;99.90;;;;;;5095328;28;20200;-59
2023/04/01 11:45:35;;;;;;;0.30;0.27;;;14.80;99.90;;;;;;5094582;28;20247;-58
2023/04/01 11:48:22;;;;;;;1.87;0.73;;;14.80;99.90;;;;;;5094639;28;20211;-59
2023/04/01 11:51:13;;;;;;;1.00;0.40;;;14.80;99.90;;;;;;5094533;28;20663;-59
2023/04/01 11:53:49;;;;;;;3.00;0.60;;;14.70;99.90;;;;;;5094479;28;20311;-59
2023/04/01 11:56:29;;;;;;;1.33;0.50;;;14.70;99.90;;;;;;5094363;28;20235;-60
2023/04/01 11:59:09;;;;;;;1.60;0.50;;;14.70;99.90;;;;;;5094765;28;20595;-59
2023/04/01 12:01:50;;;;;;;3.00;2.10;;;14.80;99.90;;;;;;5094593;28;20204;-58
2023/04/01 12:04:42;;;;;;;1.77;0.67;;;14.90;99.90;;;;;;5094685;28;20204;-59
2023/04/01 12:07:20;;;;;;;1.40;0.20;;;14.90;99.90;;;;;;5093072;28;20197;-59
2023/04/01 12:09:56;;;;;;;0.30;0.10;;;14.80;99.90;;;;;;5094249;28;20273;-58
2023/04/01 12:12:31;;;;;;;0.53;0.30;;;14.60;99.90;;;;;;5094343;28;20207;-59
2023/04/01 12:15:14;;;;;;;0.40;0.20;;;14.50;99.90;;;;;;5093963;28;20220;-58
2023/04/01 12:17:47;;;;;;;0.50;0.20;;;14.40;99.90;;;;;;5093879;28;20295;-60
2023/04/01 12:20:28;;;;;;;0.60;0.50;;;14.40;99.90;;;;;;5094238;28;20204;-60
2023/04/01 12:23:07;;;;;;;1.60;0.90;;;14.40;99.90;;;;;;5093885;28;20200;-59
2023/04/01 12:25:59;;;;;;;0.10;0.10;;;14.30;99.90;;;;;;5093888;28;20246;-60
2023/04/01 12:28:37;;;;;;;0.30;0.30;;;14.20;99.90;;;;;;5094057;28;20204;-58
2023/04/01 12:31:15;;;;;;;0.90;0.37;;;14.10;99.90;;;;;;5093691;28;20624;-58
2023/04/01 12:34:01;;;;;;;1.13;0.20;;;14.10;99.90;;;;;;5093496;28;20687;-59
2023/04/01 12:36:41;;;;;;;0.60;0.50;;;14.20;99.90;;;;;;5093276;28;20269;-59
2023/04/01 12:39:33;;;;;;;0.60;0.20;;;14.20;99.90;;;;;;5093585;28;20208;-59
2023/04/01 12:42:12;;;;;;;0.47;0.30;;;14.30;99.90;;;;;;5093535;28;20589;-59
2023/04/01 12:44:55;;;;;;;1.00;0.80;;;14.40;99.90;;;;;;5093321;28;20211;-59
2023/04/01 12:47:48;;;;;;;0.13;0.10;;;14.50;99.90;;;;;;5093085;28;20576;-58
2023/04/01 12:50:31;;;;;;;0.37;0.23;;;14.60;99.90;;;;;;5085529;28;20211;-58
2023/04/01 12:53:15;;;;;;;1.27;0.80;;;14.70;99.90;;;;;;5093582;28;20704;-58
2023/04/01 12:55:44;;;;;;;0.53;0.20;;;14.60;99.90;;;;;;5093066;28;20307;-59
2023/04/01 12:58:43;;;;;;;0.40;0.40;;;14.70;99.90;;;;;;5093880;28;20211;-59
2023/04/01 13:01:45;;;;;;;0.90;0.60;;;14.70;99.90;;;;;;5093347;28;20208;-59
2023/04/01 13:04:40;;;;;;;1.00;0.77;;;14.70;99.90;;;;;;5075138;28;20210;-60
2023/04/01 13:07:23;;;;;;;1.17;0.70;;;14.50;99.90;;;;;;5093038;28;20587;-59
2023/04/01 13:09:58;;;;;;;0.20;0.20;;;14.40;99.90;;;;;;5093262;28;20211;-59
2023/04/01 13:13:03;;;;;;;0.60;0.40;;;14.30;99.90;;;;;;5093318;28;20208;-59
2023/04/01 13:15:38;;;;;;;2.23;0.73;;;14.10;99.90;;;;;;5086954;28;20711;-59
2023/04/01 13:18:26;;;;;;;0.57;0.30;;;14.10;99.90;;;;;;5092824;28;20725;-60
2023/04/01 13:21:06;;;;;;;0.17;0.17;;;14.00;99.90;;;;;;5092967;28;20207;-60
2023/04/01 13:23:51;;;;;;;0.27;0.10;;;14.10;99.90;;;;;;5093398;28;20196;-60
2023/04/01 13:26:23;;;;;;;0.10;0.10;;;14.10;99.90;;;;;;5093503;28;20238;-58
2023/04/01 13:28:56;;;;;;;0.30;0.30;;;14.20;99.90;;;;;;5092918;28;20226;-59
2023/04/01 13:31:34;;;;;;;0.80;0.30;;;14.20;99.90;;;;;;5093230;28;20261;-59
2023/04/01 13:34:13;;;;;;;1.07;0.23;;;14.10;99.90;;;;;;5092806;28;20231;-59
2023/04/01 13:36:54;;;;;;;0.60;0.20;;;14.00;99.90;;;;;;5092261;28;20711;-59